sensor_id;sensor_type;location;lat;lon;timestamp;P1;durP1;ratioP1;P2;durP2;ratioP2
6177;SDS011;3122;48.208;11.174;2023-04-25T00:00:53;3.50;;;3.17;;
6177;SDS011;3122;48.208;11.174;2023-04-25T00:05:54;3.53;;;3.10;;
6177;SDS011;3122;48.208;11.174;2023-04-25T00:10:56;4.77;;;3.83;;
6177;SDS011;3122;48.208;11.174;2023-04-25T00:15:57;3.30;;;3.00;;
6177;SDS011;3122;48.208;11.174;2023-04-25T00:20:58;4.20;;;3.17;;
6177;SDS011;3122;48.208;11.174;2023-04-25T00:25:59;3.87;;;3.27;;
6177;SDS011;3122;48.208;11.174;2023-04-25T00:30:59;4.77;;;4.13;;
6177;SDS011;3122;48.208;11.174;2023-04-25T00:36:00;4.90;;;3.97;;
6177;SDS011;3122;48.208;11.174;2023-04-25T00:41:01;3.60;;;3.30;;
6177;SDS011;3122;48.208;11.174;2023-04-25T00:46:01;9.53;;;4.30;;
6177;SDS011;3122;48.208;11.174;2023-04-25T00:51:02;4.80;;;4.30;;
6177;SDS011;3122;48.208;11.174;2023-04-25T00:56:02;5.03;;;3.50;;
6177;SDS011;3122;48.208;11.174;2023-04-25T01:01:04;3.33;;;3.03;;
6177;SDS011;3122;48.208;11.174;2023-04-25T01:06:07;4.13;;;3.33;;
6177;SDS011;3122;48.208;11.174;2023-04-25T01:11:09;4.63;;;3.30;;
6177;SDS011;3122;48.208;11.174;2023-04-25T01:16:09;4.03;;;3.63;;
6177;SDS011;3122;48.208;11.174;2023-04-25T01:21:11;3.20;;;2.90;;
6177;SDS011;3122;48.208;11.174;2023-04-25T01:26:12;4.20;;;3.47;;
6177;SDS011;3122;48.208;11.174;2023-04-25T01:31:14;3.60;;;2.70;;
6177;SDS011;3122;48.208;11.174;2023-04-25T01:36:15;3.40;;;3.10;;
6177;SDS011;3122;48.208;11.174;2023-04-25T01:41:16;3.60;;;3.30;;
6177;SDS011;3122;48.208;11.174;2023-04-25T01:46:17;4.47;;;3.43;;
6177;SDS011;3122;48.208;11.174;2023-04-25T01:51:18;3.50;;;3.20;;
6177;SDS011;3122;48.208;11.174;2023-04-25T01:56:19;3.40;;;3.10;;
6177;SDS011;3122;48.208;11.174;2023-04-25T02:01:20;4.40;;;3.73;;
6177;SDS011;3122;48.208;11.174;2023-04-25T02:06:20;3.80;;;3.30;;
6177;SDS011;3122;48.208;11.174;2023-04-25T02:11:21;3.30;;;3.10;;
6177;SDS011;3122;48.208;11.174;2023-04-25T02:16:22;3.80;;;3.40;;
6177;SDS011;3122;48.208;11.174;2023-04-25T02:21:23;3.93;;;3.40;;
6177;SDS011;3122;48.208;11.174;2023-04-25T02:26:24;3.13;;;2.93;;
6177;SDS011;3122;48.208;11.174;2023-04-25T02:31:24;3.37;;;3.07;;
6177;SDS011;3122;48.208;11.174;2023-04-25T02:36:25;5.77;;;4.47;;
6177;SDS011;3122;48.208;11.174;2023-04-25T02:41:26;7.73;;;4.63;;
6177;SDS011;3122;48.208;11.174;2023-04-25T02:46:27;3.53;;;3.20;;
6177;SDS011;3122;48.208;11.174;2023-04-25T02:51:27;3.93;;;3.33;;
6177;SDS011;3122;48.208;11.174;2023-04-25T02:56:28;4.73;;;3.70;;
6177;SDS011;3122;48.208;11.174;2023-04-25T03:01:29;3.13;;;2.83;;
6177;SDS011;3122;48.208;11.174;2023-04-25T03:06:29;5.70;;;3.10;;
6177;SDS011;3122;48.208;11.174;2023-04-25T03:11:30;3.70;;;2.87;;
6177;SDS011;3122;48.208;11.174;2023-04-25T03:16:31;7.50;;;3.30;;
6177;SDS011;3122;48.208;11.174;2023-04-25T03:21:32;3.80;;;2.90;;
6177;SDS011;3122;48.208;11.174;2023-04-25T03:26:34;6.80;;;2.40;;
6177;SDS011;3122;48.208;11.174;2023-04-25T03:31:34;2.47;;;2.27;;
6177;SDS011;3122;48.208;11.174;2023-04-25T03:36:35;3.23;;;2.53;;
6177;SDS011;3122;48.208;11.174;2023-04-25T03:41:35;2.73;;;2.47;;
6177;SDS011;3122;48.208;11.174;2023-04-25T03:46:36;3.13;;;2.83;;
6177;SDS011;3122;48.208;11.174;2023-04-25T03:51:36;4.00;;;2.80;;
6177;SDS011;3122;48.208;11.174;2023-04-25T03:56:37;3.70;;;3.10;;
6177;SDS011;3122;48.208;11.174;2023-04-25T04:01:38;2.93;;;2.47;;
6177;SDS011;3122;48.208;11.174;2023-04-25T04:06:38;2.70;;;2.50;;
6177;SDS011;3122;48.208;11.174;2023-04-25T04:11:39;2.73;;;2.53;;
6177;SDS011;3122;48.208;11.174;2023-04-25T04:16:40;3.63;;;2.83;;
6177;SDS011;3122;48.208;11.174;2023-04-25T04:21:41;4.27;;;2.87;;
6177;SDS011;3122;48.208;11.174;2023-04-25T04:26:42;3.17;;;2.73;;
6177;SDS011;3122;48.208;11.174;2023-04-25T04:31:44;4.93;;;2.97;;
6177;SDS011;3122;48.208;11.174;2023-04-25T04:36:45;5.10;;;2.80;;
6177;SDS011;3122;48.208;11.174;2023-04-25T04:41:46;4.17;;;3.43;;
6177;SDS011;3122;48.208;11.174;2023-04-25T04:46:47;6.07;;;4.80;;
6177;SDS011;3122;48.208;11.174;2023-04-25T04:51:48;3.47;;;3.17;;
6177;SDS011;3122;48.208;11.174;2023-04-25T04:56:49;4.00;;;3.13;;
6177;SDS011;3122;48.208;11.174;2023-04-25T05:01:52;3.30;;;3.00;;
6177;SDS011;3122;48.208;11.174;2023-04-25T05:06:52;4.30;;;3.13;;
6177;SDS011;3122;48.208;11.174;2023-04-25T05:11:53;7.97;;;3.80;;
6177;SDS011;3122;48.208;11.174;2023-04-25T05:16:54;4.80;;;3.80;;
6177;SDS011;3122;48.208;11.174;2023-04-25T05:21:54;4.40;;;3.67;;
6177;SDS011;3122;48.208;11.174;2023-04-25T05:26:55;5.17;;;4.30;;
6177;SDS011;3122;48.208;11.174;2023-04-25T05:31:55;4.73;;;3.70;;
6177;SDS011;3122;48.208;11.174;2023-04-25T05:36:56;7.90;;;4.23;;
6177;SDS011;3122;48.208;11.174;2023-04-25T05:41:56;9.40;;;5.63;;
6177;SDS011;3122;48.208;11.174;2023-04-25T05:46:57;5.50;;;4.73;;
6177;SDS011;3122;48.208;11.174;2023-04-25T05:51:57;5.00;;;3.73;;
6177;SDS011;3122;48.208;11.174;2023-04-25T05:56:58;6.07;;;4.10;;
6177;SDS011;3122;48.208;11.174;2023-04-25T06:02:00;4.33;;;3.80;;
6177;SDS011;3122;48.208;11.174;2023-04-25T06:07:00;6.00;;;3.77;;
6177;SDS011;3122;48.208;11.174;2023-04-25T06:12:01;6.90;;;4.43;;
6177;SDS011;3122;48.208;11.174;2023-04-25T06:17:02;10.57;;;4.23;;
6177;SDS011;3122;48.208;11.174;2023-04-25T06:22:06;8.00;;;4.80;;
6177;SDS011;3122;48.208;11.174;2023-04-25T06:27:07;5.60;;;4.27;;
6177;SDS011;3122;48.208;11.174;2023-04-25T06:32:08;5.30;;;4.33;;
6177;SDS011;3122;48.208;11.174;2023-04-25T06:37:08;5.50;;;4.20;;
6177;SDS011;3122;48.208;11.174;2023-04-25T06:42:09;4.33;;;3.93;;
6177;SDS011;3122;48.208;11.174;2023-04-25T06:47:09;4.37;;;3.77;;
6177;SDS011;3122;48.208;11.174;2023-04-25T06:52:10;4.90;;;4.20;;
6177;SDS011;3122;48.208;11.174;2023-04-25T06:57:11;4.73;;;3.57;;
6177;SDS011;3122;48.208;11.174;2023-04-25T07:02:11;4.37;;;3.70;;
6177;SDS011;3122;48.208;11.174;2023-04-25T07:07:12;4.30;;;3.90;;
6177;SDS011;3122;48.208;11.174;2023-04-25T07:12:12;4.30;;;3.90;;
6177;SDS011;3122;48.208;11.174;2023-04-25T07:17:13;8.70;;;4.80;;
6177;SDS011;3122;48.208;11.174;2023-04-25T07:22:13;7.00;;;4.40;;
6177;SDS011;3122;48.208;11.174;2023-04-25T07:27:14;5.77;;;3.90;;
6177;SDS011;3122;48.208;11.174;2023-04-25T07:32:15;5.43;;;3.67;;
6177;SDS011;3122;48.208;11.174;2023-04-25T07:37:15;4.60;;;3.70;;
6177;SDS011;3122;48.208;11.174;2023-04-25T07:42:18;3.13;;;2.93;;
6177;SDS011;3122;48.208;11.174;2023-04-25T07:47:19;5.53;;;3.37;;
6177;SDS011;3122;48.208;11.174;2023-04-25T07:52:19;4.37;;;3.50;;
6177;SDS011;3122;48.208;11.174;2023-04-25T07:57:21;2.50;;;2.27;;
6177;SDS011;3122;48.208;11.174;2023-04-25T08:02:21;3.17;;;2.87;;
6177;SDS011;3122;48.208;11.174;2023-04-25T08:07:22;2.80;;;2.60;;
6177;SDS011;3122;48.208;11.174;2023-04-25T08:12:23;3.10;;;2.77;;
6177;SDS011;3122;48.208;11.174;2023-04-25T08:17:23;3.20;;;3.00;;
6177;SDS011;3122;48.208;11.174;2023-04-25T08:22:24;2.43;;;2.10;;
6177;SDS011;3122;48.208;11.174;2023-04-25T08:27:24;2.70;;;2.50;;
6177;SDS011;3122;48.208;11.174;2023-04-25T08:32:25;3.67;;;2.90;;
6177;SDS011;3122;48.208;11.174;2023-04-25T08:37:25;3.90;;;2.60;;
6177;SDS011;3122;48.208;11.174;2023-04-25T08:42:26;7.20;;;2.87;;
6177;SDS011;3122;48.208;11.174;2023-04-25T08:47:28;3.63;;;2.90;;
6177;SDS011;3122;48.208;11.174;2023-04-25T08:52:43;2.57;;;2.37;;
6177;SDS011;3122;48.208;11.174;2023-04-25T08:57:45;3.70;;;2.70;;
6177;SDS011;3122;48.208;11.174;2023-04-25T09:02:46;2.77;;;2.57;;
6177;SDS011;3122;48.208;11.174;2023-04-25T09:07:47;2.97;;;2.70;;
6177;SDS011;3122;48.208;11.174;2023-04-25T09:18:28;4.20;;;3.30;;
6177;SDS011;3122;48.208;11.174;2023-04-25T09:23:30;2.23;;;2.03;;
6177;SDS011;3122;48.208;11.174;2023-04-25T09:28:38;2.70;;;2.00;;
6177;SDS011;3122;48.208;11.174;2023-04-25T09:33:40;3.53;;;2.20;;
6177;SDS011;3122;48.208;11.174;2023-04-25T09:38:42;4.63;;;2.83;;
6177;SDS011;3122;48.208;11.174;2023-04-25T09:43:44;3.50;;;2.63;;
6177;SDS011;3122;48.208;11.174;2023-04-25T09:48:49;2.57;;;2.10;;
6177;SDS011;3122;48.208;11.174;2023-04-25T09:53:51;3.70;;;2.80;;
6177;SDS011;3122;48.208;11.174;2023-04-25T09:58:51;5.03;;;2.40;;
6177;SDS011;3122;48.208;11.174;2023-04-25T10:03:54;2.57;;;2.37;;
6177;SDS011;3122;48.208;11.174;2023-04-25T10:08:57;4.13;;;3.00;;
6177;SDS011;3122;48.208;11.174;2023-04-25T10:13:58;4.40;;;3.20;;
6177;SDS011;3122;48.208;11.174;2023-04-25T10:19:00;3.80;;;2.50;;
6177;SDS011;3122;48.208;11.174;2023-04-25T10:24:02;5.00;;;4.50;;
6177;SDS011;3122;48.208;11.174;2023-04-25T10:29:03;4.23;;;3.37;;
6177;SDS011;3122;48.208;11.174;2023-04-25T10:34:04;2.63;;;2.43;;
6177;SDS011;3122;48.208;11.174;2023-04-25T10:39:05;2.70;;;2.30;;
6177;SDS011;3122;48.208;11.174;2023-04-25T10:44:09;1.97;;;1.87;;
6177;SDS011;3122;48.208;11.174;2023-04-25T10:49:10;3.00;;;1.93;;
6177;SDS011;3122;48.208;11.174;2023-04-25T10:54:10;5.60;;;3.30;;
6177;SDS011;3122;48.208;11.174;2023-04-25T10:59:12;5.67;;;3.20;;
6177;SDS011;3122;48.208;11.174;2023-04-25T11:09:25;2.60;;;2.40;;
6177;SDS011;3122;48.208;11.174;2023-04-25T11:14:26;2.70;;;2.50;;
6177;SDS011;3122;48.208;11.174;2023-04-25T11:19:27;5.97;;;3.40;;
6177;SDS011;3122;48.208;11.174;2023-04-25T11:24:32;3.90;;;2.70;;
6177;SDS011;3122;48.208;11.174;2023-04-25T11:29:34;3.20;;;2.57;;
6177;SDS011;3122;48.208;11.174;2023-04-25T11:34:35;2.80;;;2.60;;
6177;SDS011;3122;48.208;11.174;2023-04-25T11:39:35;3.47;;;2.90;;
6177;SDS011;3122;48.208;11.174;2023-04-25T11:44:37;2.90;;;2.70;;
6177;SDS011;3122;48.208;11.174;2023-04-25T11:49:39;2.33;;;2.13;;
6177;SDS011;3122;48.208;11.174;2023-04-25T11:54:39;3.03;;;2.70;;
6177;SDS011;3122;48.208;11.174;2023-04-25T11:59:41;3.20;;;1.97;;
6177;SDS011;3122;48.208;11.174;2023-04-25T12:04:41;3.70;;;2.20;;
6177;SDS011;3122;48.208;11.174;2023-04-25T12:09:42;2.00;;;1.90;;
6177;SDS011;3122;48.208;11.174;2023-04-25T12:14:45;2.17;;;2.07;;
6177;SDS011;3122;48.208;11.174;2023-04-25T12:19:48;2.43;;;2.23;;
6177;SDS011;3122;48.208;11.174;2023-04-25T12:24:49;1.70;;;1.60;;
6177;SDS011;3122;48.208;11.174;2023-04-25T12:29:50;1.90;;;1.80;;
6177;SDS011;3122;48.208;11.174;2023-04-25T12:34:52;2.00;;;1.90;;
6177;SDS011;3122;48.208;11.174;2023-04-25T12:39:53;2.20;;;2.00;;
6177;SDS011;3122;48.208;11.174;2023-04-25T12:44:53;2.70;;;1.93;;
6177;SDS011;3122;48.208;11.174;2023-04-25T12:49:54;2.00;;;1.70;;
6177;SDS011;3122;48.208;11.174;2023-04-25T12:54:55;1.20;;;1.20;;
6177;SDS011;3122;48.208;11.174;2023-04-25T12:59:55;1.53;;;1.43;;
6177;SDS011;3122;48.208;11.174;2023-04-25T13:04:56;1.60;;;1.50;;
6177;SDS011;3122;48.208;11.174;2023-04-25T13:09:56;2.00;;;1.90;;
6177;SDS011;3122;48.208;11.174;2023-04-25T13:14:57;1.90;;;1.80;;
6177;SDS011;3122;48.208;11.174;2023-04-25T13:19:58;3.73;;;2.20;;
6177;SDS011;3122;48.208;11.174;2023-04-25T13:24:58;1.80;;;1.70;;
6177;SDS011;3122;48.208;11.174;2023-04-25T13:29:59;1.83;;;1.40;;
6177;SDS011;3122;48.208;11.174;2023-04-25T13:35:01;1.30;;;1.30;;
6177;SDS011;3122;48.208;11.174;2023-04-25T13:40:08;1.13;;;1.13;;
6177;SDS011;3122;48.208;11.174;2023-04-25T13:45:09;1.17;;;1.17;;
6177;SDS011;3122;48.208;11.174;2023-04-25T13:50:10;1.80;;;1.70;;
6177;SDS011;3122;48.208;11.174;2023-04-25T13:55:11;2.10;;;1.90;;
6177;SDS011;3122;48.208;11.174;2023-04-25T14:00:12;3.10;;;2.80;;
6177;SDS011;3122;48.208;11.174;2023-04-25T14:05:13;2.50;;;2.30;;
6177;SDS011;3122;48.208;11.174;2023-04-25T14:10:14;2.40;;;2.30;;
6177;SDS011;3122;48.208;11.174;2023-04-25T14:15:14;2.10;;;1.90;;
6177;SDS011;3122;48.208;11.174;2023-04-25T14:20:15;1.70;;;1.60;;
6177;SDS011;3122;48.208;11.174;2023-04-25T14:25:20;2.10;;;2.00;;
6177;SDS011;3122;48.208;11.174;2023-04-25T14:30:21;2.30;;;2.10;;
6177;SDS011;3122;48.208;11.174;2023-04-25T14:35:21;2.33;;;2.20;;
6177;SDS011;3122;48.208;11.174;2023-04-25T14:40:22;2.70;;;2.50;;
6177;SDS011;3122;48.208;11.174;2023-04-25T14:45:23;3.00;;;2.70;;
6177;SDS011;3122;48.208;11.174;2023-04-25T14:50:23;2.80;;;2.70;;
6177;SDS011;3122;48.208;11.174;2023-04-25T14:55:24;2.33;;;2.20;;
6177;SDS011;3122;48.208;11.174;2023-04-25T15:00:25;2.80;;;2.57;;
6177;SDS011;3122;48.208;11.174;2023-04-25T15:05:26;2.70;;;2.50;;
6177;SDS011;3122;48.208;11.174;2023-04-25T15:10:27;3.47;;;3.17;;
6177;SDS011;3122;48.208;11.174;2023-04-25T15:15:28;3.17;;;2.97;;
6177;SDS011;3122;48.208;11.174;2023-04-25T15:20:29;3.10;;;2.90;;
6177;SDS011;3122;48.208;11.174;2023-04-25T15:25:30;3.53;;;2.70;;
6177;SDS011;3122;48.208;11.174;2023-04-25T15:30:30;2.00;;;1.90;;
6177;SDS011;3122;48.208;11.174;2023-04-25T15:35:31;2.10;;;2.00;;
6177;SDS011;3122;48.208;11.174;2023-04-25T15:40:31;2.40;;;2.30;;
6177;SDS011;3122;48.208;11.174;2023-04-25T15:45:32;3.77;;;3.20;;
6177;SDS011;3122;48.208;11.174;2023-04-25T15:50:32;3.17;;;2.87;;
6177;SDS011;3122;48.208;11.174;2023-04-25T15:55:35;4.00;;;3.07;;
6177;SDS011;3122;48.208;11.174;2023-04-25T16:00:36;5.00;;;3.57;;
6177;SDS011;3122;48.208;11.174;2023-04-25T16:05:38;5.00;;;4.37;;
6177;SDS011;3122;48.208;11.174;2023-04-25T16:10:39;4.30;;;3.90;;
6177;SDS011;3122;48.208;11.174;2023-04-25T16:15:41;5.20;;;4.70;;
6177;SDS011;3122;48.208;11.174;2023-04-25T16:20:41;6.03;;;4.13;;
6177;SDS011;3122;48.208;11.174;2023-04-25T16:25:42;4.53;;;4.13;;
6177;SDS011;3122;48.208;11.174;2023-04-25T16:30:43;6.17;;;4.87;;
6177;SDS011;3122;48.208;11.174;2023-04-25T16:35:43;4.27;;;3.87;;
6177;SDS011;3122;48.208;11.174;2023-04-25T16:40:44;5.20;;;4.77;;
6177;SDS011;3122;48.208;11.174;2023-04-25T16:45:45;5.97;;;4.37;;
6177;SDS011;3122;48.208;11.174;2023-04-25T16:50:45;7.10;;;3.97;;
6177;SDS011;3122;48.208;11.174;2023-04-25T16:55:46;6.33;;;3.70;;
6177;SDS011;3122;48.208;11.174;2023-04-25T17:00:46;7.17;;;5.13;;
6177;SDS011;3122;48.208;11.174;2023-04-25T17:05:49;6.53;;;5.37;;
6177;SDS011;3122;48.208;11.174;2023-04-25T17:10:49;8.20;;;5.10;;
6177;SDS011;3122;48.208;11.174;2023-04-25T17:15:50;4.27;;;3.63;;
6177;SDS011;3122;48.208;11.174;2023-04-25T17:20:50;4.23;;;3.80;;
6177;SDS011;3122;48.208;11.174;2023-04-25T17:25:51;5.87;;;5.27;;
6177;SDS011;3122;48.208;11.174;2023-04-25T17:30:52;6.60;;;5.17;;
6177;SDS011;3122;48.208;11.174;2023-04-25T17:35:52;5.77;;;4.23;;
6177;SDS011;3122;48.208;11.174;2023-04-25T17:40:53;3.87;;;3.17;;
6177;SDS011;3122;48.208;11.174;2023-04-25T17:45:54;3.90;;;3.33;;
6177;SDS011;3122;48.208;11.174;2023-04-25T17:50:54;4.17;;;3.77;;
6177;SDS011;3122;48.208;11.174;2023-04-25T17:55:55;6.60;;;4.50;;
6177;SDS011;3122;48.208;11.174;2023-04-25T18:00:56;4.10;;;3.70;;
6177;SDS011;3122;48.208;11.174;2023-04-25T18:05:56;5.80;;;5.00;;
6177;SDS011;3122;48.208;11.174;2023-04-25T18:10:57;5.10;;;4.27;;
6177;SDS011;3122;48.208;11.174;2023-04-25T18:15:57;5.53;;;3.90;;
6177;SDS011;3122;48.208;11.174;2023-04-25T18:20:59;3.50;;;3.20;;
6177;SDS011;3122;48.208;11.174;2023-04-25T18:26:04;14.20;;;7.67;;
6177;SDS011;3122;48.208;11.174;2023-04-25T18:31:05;11.20;;;7.30;;
6177;SDS011;3122;48.208;11.174;2023-04-25T18:36:05;13.63;;;7.17;;
6177;SDS011;3122;48.208;11.174;2023-04-25T18:41:06;12.40;;;6.80;;
6177;SDS011;3122;48.208;11.174;2023-04-25T18:46:07;12.00;;;7.23;;
6177;SDS011;3122;48.208;11.174;2023-04-25T18:51:08;10.53;;;7.10;;
6177;SDS011;3122;48.208;11.174;2023-04-25T18:56:08;11.27;;;7.33;;
6177;SDS011;3122;48.208;11.174;2023-04-25T19:01:09;7.60;;;5.33;;
6177;SDS011;3122;48.208;11.174;2023-04-25T19:06:10;7.50;;;4.60;;
6177;SDS011;3122;48.208;11.174;2023-04-25T19:11:10;5.27;;;3.80;;
6177;SDS011;3122;48.208;11.174;2023-04-25T19:16:11;5.10;;;3.37;;
6177;SDS011;3122;48.208;11.174;2023-04-25T19:21:12;3.90;;;3.50;;
6177;SDS011;3122;48.208;11.174;2023-04-25T19:26:13;5.87;;;4.63;;
6177;SDS011;3122;48.208;11.174;2023-04-25T19:31:14;12.43;;;7.37;;
6177;SDS011;3122;48.208;11.174;2023-04-25T19:36:14;5.70;;;4.90;;
6177;SDS011;3122;48.208;11.174;2023-04-25T19:41:15;5.20;;;4.67;;
6177;SDS011;3122;48.208;11.174;2023-04-25T19:46:17;5.33;;;4.83;;
6177;SDS011;3122;48.208;11.174;2023-04-25T19:51:17;6.03;;;5.10;;
6177;SDS011;3122;48.208;11.174;2023-04-25T19:56:18;11.10;;;8.77;;
6177;SDS011;3122;48.208;11.174;2023-04-25T20:01:19;15.47;;;12.50;;
6177;SDS011;3122;48.208;11.174;2023-04-25T20:06:21;5.67;;;5.07;;
6177;SDS011;3122;48.208;11.174;2023-04-25T20:11:21;6.37;;;4.90;;
6177;SDS011;3122;48.208;11.174;2023-04-25T20:16:22;5.53;;;4.90;;
6177;SDS011;3122;48.208;11.174;2023-04-25T20:21:23;6.90;;;5.33;;
6177;SDS011;3122;48.208;11.174;2023-04-25T20:26:23;7.37;;;5.20;;
6177;SDS011;3122;48.208;11.174;2023-04-25T20:31:24;8.00;;;5.40;;
6177;SDS011;3122;48.208;11.174;2023-04-25T20:36:25;6.17;;;4.83;;
6177;SDS011;3122;48.208;11.174;2023-04-25T20:41:26;6.73;;;4.70;;
6177;SDS011;3122;48.208;11.174;2023-04-25T20:46:27;8.23;;;5.57;;
6177;SDS011;3122;48.208;11.174;2023-04-25T20:51:31;7.30;;;5.70;;
6177;SDS011;3122;48.208;11.174;2023-04-25T20:56:32;7.47;;;6.30;;
6177;SDS011;3122;48.208;11.174;2023-04-25T21:01:32;6.73;;;5.93;;
6177;SDS011;3122;48.208;11.174;2023-04-25T21:06:33;10.90;;;7.77;;
6177;SDS011;3122;48.208;11.174;2023-04-25T21:11:34;13.57;;;8.77;;
6177;SDS011;3122;48.208;11.174;2023-04-25T21:16:34;10.60;;;7.00;;
6177;SDS011;3122;48.208;11.174;2023-04-25T21:21:37;9.67;;;6.80;;
6177;SDS011;3122;48.208;11.174;2023-04-25T21:26:38;8.53;;;6.10;;
6177;SDS011;3122;48.208;11.174;2023-04-25T21:31:39;10.70;;;7.57;;
6177;SDS011;3122;48.208;11.174;2023-04-25T21:36:41;9.43;;;6.43;;
6177;SDS011;3122;48.208;11.174;2023-04-25T21:41:43;8.20;;;6.47;;
6177;SDS011;3122;48.208;11.174;2023-04-25T21:46:43;9.17;;;6.30;;
6177;SDS011;3122;48.208;11.174;2023-04-25T21:51:44;10.67;;;7.17;;
6177;SDS011;3122;48.208;11.174;2023-04-25T21:56:45;9.07;;;7.13;;
6177;SDS011;3122;48.208;11.174;2023-04-25T22:01:45;8.67;;;6.33;;
6177;SDS011;3122;48.208;11.174;2023-04-25T22:06:46;9.77;;;7.27;;
6177;SDS011;3122;48.208;11.174;2023-04-25T22:11:47;10.03;;;6.93;;
6177;SDS011;3122;48.208;11.174;2023-04-25T22:16:47;7.40;;;6.20;;
6177;SDS011;3122;48.208;11.174;2023-04-25T22:21:48;13.70;;;6.27;;
6177;SDS011;3122;48.208;11.174;2023-04-25T22:26:49;8.43;;;6.43;;
6177;SDS011;3122;48.208;11.174;2023-04-25T22:31:50;16.47;;;6.87;;
6177;SDS011;3122;48.208;11.174;2023-04-25T22:36:51;9.20;;;7.13;;
6177;SDS011;3122;48.208;11.174;2023-04-25T22:41:52;10.30;;;7.17;;
6177;SDS011;3122;48.208;11.174;2023-04-25T22:46:53;11.63;;;7.07;;
6177;SDS011;3122;48.208;11.174;2023-04-25T22:51:53;6.97;;;5.80;;
6177;SDS011;3122;48.208;11.174;2023-04-25T22:56:55;10.97;;;7.37;;
6177;SDS011;3122;48.208;11.174;2023-04-25T23:01:56;12.57;;;8.00;;
6177;SDS011;3122;48.208;11.174;2023-04-25T23:06:59;11.63;;;7.47;;
6177;SDS011;3122;48.208;11.174;2023-04-25T23:11:59;10.90;;;7.60;;
6177;SDS011;3122;48.208;11.174;2023-04-25T23:17:01;11.47;;;8.20;;
6177;SDS011;3122;48.208;11.174;2023-04-25T23:22:01;12.70;;;7.97;;
6177;SDS011;3122;48.208;11.174;2023-04-25T23:27:03;11.47;;;7.37;;
6177;SDS011;3122;48.208;11.174;2023-04-25T23:32:04;15.20;;;8.70;;
6177;SDS011;3122;48.208;11.174;2023-04-25T23:37:05;11.77;;;8.20;;
6177;SDS011;3122;48.208;11.174;2023-04-25T23:42:06;11.87;;;8.47;;
6177;SDS011;3122;48.208;11.174;2023-04-25T23:47:06;15.60;;;8.80;;
6177;SDS011;3122;48.208;11.174;2023-04-25T23:52:07;12.60;;;8.53;;
6177;SDS011;3122;48.208;11.174;2023-04-25T23:57:08;14.87;;;9.50;;
